sensor_id;sensor_type;location;lat;lon;timestamp;P1;durP1;ratioP1;P2;durP2;ratioP2
2724;SDS011;1370;52.596;13.112;2023-05-31T00:00:57;3.60;;;2.60;;
2724;SDS011;1370;52.596;13.112;2023-05-31T00:03:22;4.93;;;2.47;;
2724;SDS011;1370;52.596;13.112;2023-05-31T00:05:48;3.63;;;2.43;;
2724;SDS011;1370;52.596;13.112;2023-05-31T00:08:13;2.73;;;2.53;;
2724;SDS011;1370;52.596;13.112;2023-05-31T00:10:38;2.70;;;2.50;;
2724;SDS011;1370;52.596;13.112;2023-05-31T00:13:03;3.57;;;2.57;;
2724;SDS011;1370;52.596;13.112;2023-05-31T00:15:29;2.57;;;2.30;;
2724;SDS011;1370;52.596;13.112;2023-05-31T00:17:54;3.07;;;2.03;;
2724;SDS011;1370;52.596;13.112;2023-05-31T00:20:20;4.77;;;2.30;;
2724;SDS011;1370;52.596;13.112;2023-05-31T00:22:45;2.70;;;2.50;;
2724;SDS011;1370;52.596;13.112;2023-05-31T00:25:10;4.80;;;2.13;;
2724;SDS011;1370;52.596;13.112;2023-05-31T00:27:35;3.97;;;2.77;;
2724;SDS011;1370;52.596;13.112;2023-05-31T00:30:01;4.13;;;1.90;;
2724;SDS011;1370;52.596;13.112;2023-05-31T00:32:26;4.90;;;2.20;;
2724;SDS011;1370;52.596;13.112;2023-05-31T00:34:51;2.60;;;2.40;;
2724;SDS011;1370;52.596;13.112;2023-05-31T00:37:17;3.63;;;2.30;;
2724;SDS011;1370;52.596;13.112;2023-05-31T00:39:42;3.03;;;2.33;;
2724;SDS011;1370;52.596;13.112;2023-05-31T00:42:07;2.53;;;1.93;;
2724;SDS011;1370;52.596;13.112;2023-05-31T00:44:33;2.27;;;2.07;;
2724;SDS011;1370;52.596;13.112;2023-05-31T00:46:58;3.37;;;2.50;;
2724;SDS011;1370;52.596;13.112;2023-05-31T00:49:24;8.23;;;2.30;;
2724;SDS011;1370;52.596;13.112;2023-05-31T00:51:51;4.57;;;2.13;;
2724;SDS011;1370;52.596;13.112;2023-05-31T00:54:17;2.73;;;1.87;;
2724;SDS011;1370;52.596;13.112;2023-05-31T00:56:42;6.83;;;2.37;;
2724;SDS011;1370;52.596;13.112;2023-05-31T00:59:08;3.53;;;2.60;;
2724;SDS011;1370;52.596;13.112;2023-05-31T01:01:33;4.83;;;2.30;;
2724;SDS011;1370;52.596;13.112;2023-05-31T01:03:59;5.00;;;2.00;;
2724;SDS011;1370;52.596;13.112;2023-05-31T01:06:24;7.03;;;2.80;;
2724;SDS011;1370;52.596;13.112;2023-05-31T01:08:50;5.80;;;2.73;;
2724;SDS011;1370;52.596;13.112;2023-05-31T01:11:26;3.00;;;2.80;;
2724;SDS011;1370;52.596;13.112;2023-05-31T01:17:05;3.10;;;2.63;;
2724;SDS011;1370;52.596;13.112;2023-05-31T01:19:51;10.70;;;3.83;;
2724;SDS011;1370;52.596;13.112;2023-05-31T01:22:19;3.47;;;2.30;;
2724;SDS011;1370;52.596;13.112;2023-05-31T01:27:41;5.80;;;2.77;;
2724;SDS011;1370;52.596;13.112;2023-05-31T01:30:07;6.77;;;2.50;;
2724;SDS011;1370;52.596;13.112;2023-05-31T01:32:33;4.20;;;1.90;;
2724;SDS011;1370;52.596;13.112;2023-05-31T01:34:58;3.43;;;2.70;;
2724;SDS011;1370;52.596;13.112;2023-05-31T01:37:24;3.23;;;2.47;;
2724;SDS011;1370;52.596;13.112;2023-05-31T01:39:49;3.73;;;2.67;;
2724;SDS011;1370;52.596;13.112;2023-05-31T01:42:16;7.40;;;3.30;;
2724;SDS011;1370;52.596;13.112;2023-05-31T01:44:42;12.13;;;2.93;;
2724;SDS011;1370;52.596;13.112;2023-05-31T01:47:08;13.57;;;3.33;;
2724;SDS011;1370;52.596;13.112;2023-05-31T01:49:35;6.00;;;2.80;;
2724;SDS011;1370;52.596;13.112;2023-05-31T01:52:01;9.00;;;3.17;;
2724;SDS011;1370;52.596;13.112;2023-05-31T01:54:28;4.23;;;2.50;;
2724;SDS011;1370;52.596;13.112;2023-05-31T01:56:53;4.47;;;3.30;;
2724;SDS011;1370;52.596;13.112;2023-05-31T01:59:19;6.63;;;3.07;;
2724;SDS011;1370;52.596;13.112;2023-05-31T02:01:44;8.47;;;3.17;;
2724;SDS011;1370;52.596;13.112;2023-05-31T02:04:10;14.90;;;3.27;;
2724;SDS011;1370;52.596;13.112;2023-05-31T02:06:36;17.50;;;4.20;;
2724;SDS011;1370;52.596;13.112;2023-05-31T02:09:02;27.83;;;5.17;;
2724;SDS011;1370;52.596;13.112;2023-05-31T02:11:28;6.03;;;3.73;;
2724;SDS011;1370;52.596;13.112;2023-05-31T02:13:54;9.60;;;3.40;;
2724;SDS011;1370;52.596;13.112;2023-05-31T02:16:19;11.73;;;3.50;;
2724;SDS011;1370;52.596;13.112;2023-05-31T02:18:44;4.17;;;2.63;;
2724;SDS011;1370;52.596;13.112;2023-05-31T02:21:10;3.47;;;2.30;;
2724;SDS011;1370;52.596;13.112;2023-05-31T02:23:35;4.97;;;2.80;;
2724;SDS011;1370;52.596;13.112;2023-05-31T02:26:00;4.13;;;2.47;;
2724;SDS011;1370;52.596;13.112;2023-05-31T02:28:25;3.93;;;2.40;;
2724;SDS011;1370;52.596;13.112;2023-05-31T02:30:57;3.50;;;2.77;;
2724;SDS011;1370;52.596;13.112;2023-05-31T02:33:23;3.20;;;2.47;;
2724;SDS011;1370;52.596;13.112;2023-05-31T02:35:49;2.70;;;2.20;;
2724;SDS011;1370;52.596;13.112;2023-05-31T02:38:14;2.27;;;2.07;;
2724;SDS011;1370;52.596;13.112;2023-05-31T02:40:40;4.30;;;2.67;;
2724;SDS011;1370;52.596;13.112;2023-05-31T02:43:05;7.47;;;2.53;;
2724;SDS011;1370;52.596;13.112;2023-05-31T02:45:30;4.57;;;2.40;;
2724;SDS011;1370;52.596;13.112;2023-05-31T02:47:55;3.97;;;2.50;;
2724;SDS011;1370;52.596;13.112;2023-05-31T02:50:21;4.70;;;2.70;;
2724;SDS011;1370;52.596;13.112;2023-05-31T02:52:46;2.50;;;2.30;;
2724;SDS011;1370;52.596;13.112;2023-05-31T02:55:12;3.00;;;2.10;;
2724;SDS011;1370;52.596;13.112;2023-05-31T02:57:37;3.93;;;2.67;;
2724;SDS011;1370;52.596;13.112;2023-05-31T03:00:03;6.10;;;2.90;;
2724;SDS011;1370;52.596;13.112;2023-05-31T03:02:36;8.73;;;2.57;;
2724;SDS011;1370;52.596;13.112;2023-05-31T03:05:05;3.03;;;2.20;;
2724;SDS011;1370;52.596;13.112;2023-05-31T03:07:31;4.37;;;2.57;;
2724;SDS011;1370;52.596;13.112;2023-05-31T03:09:57;6.40;;;2.40;;
2724;SDS011;1370;52.596;13.112;2023-05-31T03:12:22;5.83;;;3.40;;
2724;SDS011;1370;52.596;13.112;2023-05-31T03:14:48;3.27;;;2.43;;
2724;SDS011;1370;52.596;13.112;2023-05-31T03:17:13;3.50;;;2.53;;
2724;SDS011;1370;52.596;13.112;2023-05-31T03:19:38;3.87;;;2.10;;
2724;SDS011;1370;52.596;13.112;2023-05-31T03:22:04;4.33;;;2.40;;
2724;SDS011;1370;52.596;13.112;2023-05-31T03:24:29;5.30;;;2.07;;
2724;SDS011;1370;52.596;13.112;2023-05-31T03:26:55;2.40;;;2.20;;
2724;SDS011;1370;52.596;13.112;2023-05-31T03:29:20;4.17;;;2.87;;
2724;SDS011;1370;52.596;13.112;2023-05-31T03:31:45;4.10;;;1.90;;
2724;SDS011;1370;52.596;13.112;2023-05-31T03:34:11;3.23;;;2.70;;
2724;SDS011;1370;52.596;13.112;2023-05-31T03:36:36;4.70;;;2.47;;
2724;SDS011;1370;52.596;13.112;2023-05-31T03:39:01;7.13;;;3.20;;
2724;SDS011;1370;52.596;13.112;2023-05-31T03:41:27;3.30;;;2.67;;
2724;SDS011;1370;52.596;13.112;2023-05-31T03:43:52;9.73;;;2.73;;
2724;SDS011;1370;52.596;13.112;2023-05-31T03:46:18;2.97;;;2.67;;
2724;SDS011;1370;52.596;13.112;2023-05-31T03:48:43;2.50;;;2.30;;
2724;SDS011;1370;52.596;13.112;2023-05-31T03:51:09;7.27;;;2.53;;
2724;SDS011;1370;52.596;13.112;2023-05-31T03:53:34;3.10;;;2.23;;
2724;SDS011;1370;52.596;13.112;2023-05-31T03:55:59;2.40;;;1.80;;
2724;SDS011;1370;52.596;13.112;2023-05-31T03:58:24;2.87;;;2.63;;
2724;SDS011;1370;52.596;13.112;2023-05-31T04:00:50;3.00;;;2.70;;
2724;SDS011;1370;52.596;13.112;2023-05-31T04:03:16;2.83;;;2.30;;
2724;SDS011;1370;52.596;13.112;2023-05-31T04:05:41;7.33;;;2.90;;
2724;SDS011;1370;52.596;13.112;2023-05-31T04:08:06;8.57;;;3.50;;
2724;SDS011;1370;52.596;13.112;2023-05-31T04:10:32;8.83;;;2.70;;
2724;SDS011;1370;52.596;13.112;2023-05-31T04:12:58;24.43;;;3.93;;
2724;SDS011;1370;52.596;13.112;2023-05-31T04:15:23;9.57;;;3.00;;
2724;SDS011;1370;52.596;13.112;2023-05-31T04:17:48;12.60;;;4.07;;
2724;SDS011;1370;52.596;13.112;2023-05-31T04:20:13;14.80;;;3.50;;
2724;SDS011;1370;52.596;13.112;2023-05-31T04:22:39;15.20;;;3.90;;
2724;SDS011;1370;52.596;13.112;2023-05-31T04:25:04;19.87;;;4.10;;
2724;SDS011;1370;52.596;13.112;2023-05-31T04:27:30;16.63;;;4.30;;
2724;SDS011;1370;52.596;13.112;2023-05-31T04:29:57;18.97;;;4.37;;
2724;SDS011;1370;52.596;13.112;2023-05-31T04:32:24;12.37;;;3.30;;
2724;SDS011;1370;52.596;13.112;2023-05-31T04:34:50;8.03;;;3.90;;
2724;SDS011;1370;52.596;13.112;2023-05-31T04:37:22;20.53;;;4.67;;
2724;SDS011;1370;52.596;13.112;2023-05-31T04:39:49;14.63;;;4.10;;
2724;SDS011;1370;52.596;13.112;2023-05-31T04:42:14;16.27;;;4.87;;
2724;SDS011;1370;52.596;13.112;2023-05-31T04:44:39;19.23;;;6.17;;
2724;SDS011;1370;52.596;13.112;2023-05-31T04:47:04;7.50;;;4.13;;
2724;SDS011;1370;52.596;13.112;2023-05-31T04:49:30;18.40;;;4.30;;
2724;SDS011;1370;52.596;13.112;2023-05-31T04:51:55;13.33;;;4.10;;
2724;SDS011;1370;52.596;13.112;2023-05-31T04:54:21;7.13;;;4.70;;
2724;SDS011;1370;52.596;13.112;2023-05-31T04:56:47;4.23;;;3.87;;
2724;SDS011;1370;52.596;13.112;2023-05-31T04:59:12;12.53;;;4.53;;
2724;SDS011;1370;52.596;13.112;2023-05-31T05:01:40;10.97;;;5.17;;
2724;SDS011;1370;52.596;13.112;2023-05-31T05:04:06;11.40;;;4.33;;
2724;SDS011;1370;52.596;13.112;2023-05-31T05:06:31;12.67;;;3.90;;
2724;SDS011;1370;52.596;13.112;2023-05-31T05:08:57;10.60;;;4.60;;
2724;SDS011;1370;52.596;13.112;2023-05-31T05:11:23;6.13;;;4.20;;
2724;SDS011;1370;52.596;13.112;2023-05-31T05:13:48;9.00;;;4.10;;
2724;SDS011;1370;52.596;13.112;2023-05-31T05:16:13;7.20;;;3.63;;
2724;SDS011;1370;52.596;13.112;2023-05-31T05:18:39;11.40;;;3.90;;
2724;SDS011;1370;52.596;13.112;2023-05-31T05:21:04;9.70;;;4.90;;
2724;SDS011;1370;52.596;13.112;2023-05-31T05:23:30;12.03;;;5.00;;
2724;SDS011;1370;52.596;13.112;2023-05-31T05:26:00;12.07;;;5.47;;
2724;SDS011;1370;52.596;13.112;2023-05-31T05:28:26;5.83;;;3.90;;
2724;SDS011;1370;52.596;13.112;2023-05-31T05:30:53;9.63;;;3.33;;
2724;SDS011;1370;52.596;13.112;2023-05-31T05:33:18;8.93;;;3.80;;
2724;SDS011;1370;52.596;13.112;2023-05-31T05:35:43;8.40;;;4.33;;
2724;SDS011;1370;52.596;13.112;2023-05-31T05:38:09;6.23;;;3.67;;
2724;SDS011;1370;52.596;13.112;2023-05-31T05:40:34;4.47;;;3.10;;
2724;SDS011;1370;52.596;13.112;2023-05-31T05:43:00;4.10;;;3.70;;
2724;SDS011;1370;52.596;13.112;2023-05-31T05:45:25;6.37;;;3.53;;
2724;SDS011;1370;52.596;13.112;2023-05-31T05:47:50;7.77;;;3.90;;
2724;SDS011;1370;52.596;13.112;2023-05-31T05:50:16;3.67;;;3.13;;
2724;SDS011;1370;52.596;13.112;2023-05-31T05:52:41;4.90;;;3.77;;
2724;SDS011;1370;52.596;13.112;2023-05-31T05:55:06;3.23;;;2.70;;
2724;SDS011;1370;52.596;13.112;2023-05-31T05:57:32;5.10;;;3.43;;
2724;SDS011;1370;52.596;13.112;2023-05-31T05:59:58;12.27;;;2.97;;
2724;SDS011;1370;52.596;13.112;2023-05-31T06:02:23;5.40;;;2.87;;
2724;SDS011;1370;52.596;13.112;2023-05-31T06:04:49;6.43;;;2.77;;
2724;SDS011;1370;52.596;13.112;2023-05-31T06:07:15;4.50;;;3.17;;
2724;SDS011;1370;52.596;13.112;2023-05-31T06:09:40;2.90;;;2.67;;
2724;SDS011;1370;52.596;13.112;2023-05-31T06:12:06;7.43;;;4.07;;
2724;SDS011;1370;52.596;13.112;2023-05-31T06:14:32;8.20;;;3.47;;
2724;SDS011;1370;52.596;13.112;2023-05-31T06:16:57;4.50;;;3.10;;
2724;SDS011;1370;52.596;13.112;2023-05-31T06:19:23;4.20;;;2.40;;
2724;SDS011;1370;52.596;13.112;2023-05-31T06:21:48;4.20;;;2.70;;
2724;SDS011;1370;52.596;13.112;2023-05-31T06:24:14;5.83;;;2.80;;
2724;SDS011;1370;52.596;13.112;2023-05-31T06:26:39;7.23;;;2.50;;
2724;SDS011;1370;52.596;13.112;2023-05-31T06:29:04;11.30;;;4.53;;
2724;SDS011;1370;52.596;13.112;2023-05-31T06:31:30;4.20;;;2.83;;
2724;SDS011;1370;52.596;13.112;2023-05-31T06:33:56;4.30;;;2.77;;
2724;SDS011;1370;52.596;13.112;2023-05-31T06:36:21;8.70;;;2.80;;
2724;SDS011;1370;52.596;13.112;2023-05-31T06:38:46;3.20;;;2.83;;
2724;SDS011;1370;52.596;13.112;2023-05-31T06:41:12;9.23;;;2.93;;
2724;SDS011;1370;52.596;13.112;2023-05-31T06:43:37;7.53;;;2.60;;
2724;SDS011;1370;52.596;13.112;2023-05-31T06:46:03;3.13;;;2.80;;
2724;SDS011;1370;52.596;13.112;2023-05-31T06:48:29;7.47;;;3.00;;
2724;SDS011;1370;52.596;13.112;2023-05-31T06:50:55;8.07;;;2.33;;
2724;SDS011;1370;52.596;13.112;2023-05-31T06:53:20;12.47;;;3.20;;
2724;SDS011;1370;52.596;13.112;2023-05-31T06:55:46;2.57;;;2.37;;
2724;SDS011;1370;52.596;13.112;2023-05-31T06:58:13;4.30;;;2.40;;
2724;SDS011;1370;52.596;13.112;2023-05-31T07:00:40;8.70;;;4.00;;
2724;SDS011;1370;52.596;13.112;2023-05-31T07:03:05;6.57;;;3.60;;
2724;SDS011;1370;52.596;13.112;2023-05-31T07:05:30;5.03;;;2.20;;
2724;SDS011;1370;52.596;13.112;2023-05-31T07:07:57;5.37;;;2.70;;
2724;SDS011;1370;52.596;13.112;2023-05-31T07:10:22;9.37;;;3.23;;
2724;SDS011;1370;52.596;13.112;2023-05-31T07:12:47;3.37;;;2.30;;
2724;SDS011;1370;52.596;13.112;2023-05-31T07:15:13;5.17;;;2.43;;
2724;SDS011;1370;52.596;13.112;2023-05-31T07:17:38;5.93;;;2.67;;
2724;SDS011;1370;52.596;13.112;2023-05-31T07:20:04;5.70;;;2.33;;
2724;SDS011;1370;52.596;13.112;2023-05-31T07:22:31;4.93;;;2.37;;
2724;SDS011;1370;52.596;13.112;2023-05-31T07:24:57;5.17;;;2.60;;
2724;SDS011;1370;52.596;13.112;2023-05-31T07:27:22;6.37;;;2.90;;
2724;SDS011;1370;52.596;13.112;2023-05-31T07:29:48;6.70;;;2.90;;
2724;SDS011;1370;52.596;13.112;2023-05-31T07:32:13;7.33;;;3.20;;
2724;SDS011;1370;52.596;13.112;2023-05-31T07:34:38;5.73;;;2.60;;
2724;SDS011;1370;52.596;13.112;2023-05-31T07:37:04;2.43;;;2.13;;
2724;SDS011;1370;52.596;13.112;2023-05-31T07:39:29;5.30;;;2.13;;
2724;SDS011;1370;52.596;13.112;2023-05-31T07:41:55;5.27;;;3.50;;
2724;SDS011;1370;52.596;13.112;2023-05-31T07:44:23;6.23;;;2.67;;
2724;SDS011;1370;52.596;13.112;2023-05-31T07:46:50;4.40;;;2.10;;
2724;SDS011;1370;52.596;13.112;2023-05-31T07:49:15;7.70;;;2.50;;
2724;SDS011;1370;52.596;13.112;2023-05-31T07:51:40;4.87;;;2.43;;
2724;SDS011;1370;52.596;13.112;2023-05-31T07:54:05;3.33;;;2.30;;
2724;SDS011;1370;52.596;13.112;2023-05-31T07:56:31;3.97;;;2.87;;
2724;SDS011;1370;52.596;13.112;2023-05-31T07:58:56;8.20;;;2.30;;
2724;SDS011;1370;52.596;13.112;2023-05-31T08:01:21;3.60;;;2.00;;
2724;SDS011;1370;52.596;13.112;2023-05-31T08:03:47;4.77;;;2.27;;
2724;SDS011;1370;52.596;13.112;2023-05-31T08:06:14;3.10;;;1.50;;
2724;SDS011;1370;52.596;13.112;2023-05-31T08:08:39;3.50;;;2.27;;
2724;SDS011;1370;52.596;13.112;2023-05-31T08:11:07;2.40;;;1.63;;
2724;SDS011;1370;52.596;13.112;2023-05-31T08:13:32;3.10;;;2.80;;
2724;SDS011;1370;52.596;13.112;2023-05-31T08:15:57;3.93;;;1.80;;
2724;SDS011;1370;52.596;13.112;2023-05-31T08:18:23;4.10;;;2.00;;
2724;SDS011;1370;52.596;13.112;2023-05-31T08:20:48;7.43;;;2.20;;
2724;SDS011;1370;52.596;13.112;2023-05-31T08:23:17;6.53;;;2.40;;
2724;SDS011;1370;52.596;13.112;2023-05-31T08:25:43;2.90;;;2.40;;
2724;SDS011;1370;52.596;13.112;2023-05-31T08:28:08;2.77;;;1.90;;
2724;SDS011;1370;52.596;13.112;2023-05-31T08:30:33;3.90;;;1.70;;
2724;SDS011;1370;52.596;13.112;2023-05-31T08:32:59;4.80;;;1.70;;
2724;SDS011;1370;52.596;13.112;2023-05-31T08:35:24;5.13;;;2.20;;
2724;SDS011;1370;52.596;13.112;2023-05-31T08:37:50;2.13;;;1.93;;
2724;SDS011;1370;52.596;13.112;2023-05-31T08:40:16;2.17;;;1.60;;
2724;SDS011;1370;52.596;13.112;2023-05-31T08:42:47;3.77;;;1.50;;
2724;SDS011;1370;52.596;13.112;2023-05-31T08:45:17;3.40;;;1.87;;
2724;SDS011;1370;52.596;13.112;2023-05-31T08:47:43;3.97;;;1.83;;
2724;SDS011;1370;52.596;13.112;2023-05-31T08:50:10;4.07;;;2.13;;
2724;SDS011;1370;52.596;13.112;2023-05-31T08:52:35;3.10;;;2.53;;
2724;SDS011;1370;52.596;13.112;2023-05-31T08:55:02;7.83;;;2.53;;
2724;SDS011;1370;52.596;13.112;2023-05-31T08:57:28;3.57;;;1.67;;
2724;SDS011;1370;52.596;13.112;2023-05-31T08:59:55;3.03;;;1.83;;
2724;SDS011;1370;52.596;13.112;2023-05-31T09:02:21;4.13;;;1.93;;
2724;SDS011;1370;52.596;13.112;2023-05-31T09:04:48;3.60;;;1.60;;
2724;SDS011;1370;52.596;13.112;2023-05-31T09:07:14;3.40;;;2.17;;
2724;SDS011;1370;52.596;13.112;2023-05-31T09:09:39;2.73;;;1.97;;
2724;SDS011;1370;52.596;13.112;2023-05-31T09:12:05;3.30;;;2.27;;
2724;SDS011;1370;52.596;13.112;2023-05-31T09:14:32;6.50;;;1.87;;
2724;SDS011;1370;52.596;13.112;2023-05-31T09:16:59;2.87;;;2.07;;
2724;SDS011;1370;52.596;13.112;2023-05-31T09:19:24;2.60;;;1.83;;
2724;SDS011;1370;52.596;13.112;2023-05-31T09:21:50;3.27;;;1.73;;
2724;SDS011;1370;52.596;13.112;2023-05-31T09:24:16;3.27;;;2.03;;
2724;SDS011;1370;52.596;13.112;2023-05-31T09:26:49;2.20;;;1.53;;
2724;SDS011;1370;52.596;13.112;2023-05-31T09:29:15;2.73;;;2.27;;
2724;SDS011;1370;52.596;13.112;2023-05-31T09:31:42;7.80;;;1.73;;
2724;SDS011;1370;52.596;13.112;2023-05-31T09:34:26;4.60;;;1.50;;
2724;SDS011;1370;52.596;13.112;2023-05-31T09:36:57;3.60;;;1.90;;
2724;SDS011;1370;52.596;13.112;2023-05-31T09:39:23;2.47;;;1.73;;
2724;SDS011;1370;52.596;13.112;2023-05-31T09:41:48;7.20;;;1.43;;
2724;SDS011;1370;52.596;13.112;2023-05-31T09:44:15;3.70;;;1.97;;
2724;SDS011;1370;52.596;13.112;2023-05-31T09:46:41;4.67;;;1.73;;
2724;SDS011;1370;52.596;13.112;2023-05-31T09:49:10;4.37;;;1.70;;
2724;SDS011;1370;52.596;13.112;2023-05-31T09:51:35;4.20;;;1.50;;
2724;SDS011;1370;52.596;13.112;2023-05-31T09:54:13;2.53;;;1.60;;
2724;SDS011;1370;52.596;13.112;2023-05-31T09:56:39;1.93;;;1.70;;
2724;SDS011;1370;52.596;13.112;2023-05-31T09:59:06;4.03;;;2.03;;
2724;SDS011;1370;52.596;13.112;2023-05-31T10:01:32;2.80;;;1.60;;
2724;SDS011;1370;52.596;13.112;2023-05-31T10:03:57;3.50;;;1.33;;
2724;SDS011;1370;52.596;13.112;2023-05-31T10:06:27;2.10;;;1.07;;
2724;SDS011;1370;52.596;13.112;2023-05-31T10:08:53;2.03;;;1.83;;
2724;SDS011;1370;52.596;13.112;2023-05-31T10:11:21;2.80;;;1.57;;
2724;SDS011;1370;52.596;13.112;2023-05-31T10:13:52;2.37;;;1.20;;
2724;SDS011;1370;52.596;13.112;2023-05-31T10:16:23;3.60;;;1.10;;
2724;SDS011;1370;52.596;13.112;2023-05-31T10:18:51;3.60;;;1.70;;
2724;SDS011;1370;52.596;13.112;2023-05-31T10:21:20;1.93;;;1.00;;
2724;SDS011;1370;52.596;13.112;2023-05-31T10:26:22;5.30;;;1.40;;
2724;SDS011;1370;52.596;13.112;2023-05-31T10:28:52;2.33;;;1.20;;
2724;SDS011;1370;52.596;13.112;2023-05-31T10:31:22;2.00;;;1.60;;
2724;SDS011;1370;52.596;13.112;2023-05-31T10:33:48;2.93;;;1.40;;
2724;SDS011;1370;52.596;13.112;2023-05-31T10:36:18;2.27;;;1.03;;
2724;SDS011;1370;52.596;13.112;2023-05-31T10:38:49;1.77;;;1.00;;
2724;SDS011;1370;52.596;13.112;2023-05-31T10:41:18;3.23;;;1.23;;
2724;SDS011;1370;52.596;13.112;2023-05-31T10:43:48;1.73;;;1.10;;
2724;SDS011;1370;52.596;13.112;2023-05-31T10:46:22;6.70;;;2.00;;
2724;SDS011;1370;52.596;13.112;2023-05-31T10:51:17;1.63;;;1.00;;
2724;SDS011;1370;52.596;13.112;2023-05-31T10:53:43;2.37;;;1.23;;
2724;SDS011;1370;52.596;13.112;2023-05-31T10:56:11;2.83;;;1.60;;
2724;SDS011;1370;52.596;13.112;2023-05-31T10:58:39;2.47;;;1.50;;
2724;SDS011;1370;52.596;13.112;2023-05-31T11:01:12;3.80;;;1.87;;
2724;SDS011;1370;52.596;13.112;2023-05-31T11:03:46;2.70;;;0.90;;
2724;SDS011;1370;52.596;13.112;2023-05-31T11:06:13;3.93;;;1.70;;
2724;SDS011;1370;52.596;13.112;2023-05-31T11:08:55;2.23;;;1.23;;
2724;SDS011;1370;52.596;13.112;2023-05-31T11:19:13;1.90;;;0.90;;
2724;SDS011;1370;52.596;13.112;2023-05-31T11:24:52;2.83;;;0.83;;
2724;SDS011;1370;52.596;13.112;2023-05-31T11:27:34;2.23;;;1.10;;
2724;SDS011;1370;52.596;13.112;2023-05-31T11:30:00;1.70;;;0.90;;
2724;SDS011;1370;52.596;13.112;2023-05-31T11:35:04;1.90;;;1.00;;
2724;SDS011;1370;52.596;13.112;2023-05-31T11:37:32;1.60;;;0.73;;
2724;SDS011;1370;52.596;13.112;2023-05-31T11:39:59;1.73;;;0.70;;
2724;SDS011;1370;52.596;13.112;2023-05-31T11:42:32;1.80;;;0.97;;
2724;SDS011;1370;52.596;13.112;2023-05-31T11:45:04;2.37;;;1.10;;
2724;SDS011;1370;52.596;13.112;2023-05-31T11:47:32;3.40;;;1.43;;
2724;SDS011;1370;52.596;13.112;2023-05-31T11:49:59;1.90;;;1.00;;
2724;SDS011;1370;52.596;13.112;2023-05-31T11:52:25;3.40;;;0.90;;
2724;SDS011;1370;52.596;13.112;2023-05-31T11:54:51;2.40;;;1.10;;
2724;SDS011;1370;52.596;13.112;2023-05-31T11:57:18;3.50;;;1.30;;
2724;SDS011;1370;52.596;13.112;2023-05-31T11:59:45;2.47;;;1.07;;
2724;SDS011;1370;52.596;13.112;2023-05-31T12:02:11;2.20;;;1.13;;
2724;SDS011;1370;52.596;13.112;2023-05-31T12:04:43;1.90;;;1.00;;
2724;SDS011;1370;52.596;13.112;2023-05-31T12:07:12;1.80;;;1.10;;
2724;SDS011;1370;52.596;13.112;2023-05-31T12:09:41;2.33;;;1.10;;
2724;SDS011;1370;52.596;13.112;2023-05-31T12:12:07;2.40;;;1.20;;
2724;SDS011;1370;52.596;13.112;2023-05-31T12:14:32;1.80;;;1.10;;
2724;SDS011;1370;52.596;13.112;2023-05-31T12:17:02;2.27;;;1.37;;
2724;SDS011;1370;52.596;13.112;2023-05-31T12:19:28;4.30;;;1.60;;
2724;SDS011;1370;52.596;13.112;2023-05-31T12:21:54;2.23;;;1.20;;
2724;SDS011;1370;52.596;13.112;2023-05-31T12:24:19;3.80;;;0.97;;
2724;SDS011;1370;52.596;13.112;2023-05-31T12:26:45;2.13;;;0.90;;
2724;SDS011;1370;52.596;13.112;2023-05-31T12:29:13;1.90;;;1.07;;
2724;SDS011;1370;52.596;13.112;2023-05-31T12:31:39;3.50;;;1.67;;
2724;SDS011;1370;52.596;13.112;2023-05-31T12:36:36;3.63;;;1.20;;
2724;SDS011;1370;52.596;13.112;2023-05-31T12:39:02;2.63;;;1.00;;
2724;SDS011;1370;52.596;13.112;2023-05-31T12:41:32;2.90;;;0.90;;
2724;SDS011;1370;52.596;13.112;2023-05-31T12:43:58;2.00;;;1.30;;
2724;SDS011;1370;52.596;13.112;2023-05-31T12:46:23;2.33;;;1.23;;
2724;SDS011;1370;52.596;13.112;2023-05-31T12:48:48;1.90;;;1.17;;
2724;SDS011;1370;52.596;13.112;2023-05-31T12:51:19;2.20;;;1.20;;
2724;SDS011;1370;52.596;13.112;2023-05-31T12:53:46;1.73;;;0.90;;
2724;SDS011;1370;52.596;13.112;2023-05-31T12:56:11;1.80;;;1.07;;
2724;SDS011;1370;52.596;13.112;2023-05-31T12:58:36;1.70;;;1.10;;
2724;SDS011;1370;52.596;13.112;2023-05-31T13:01:02;2.10;;;1.10;;
2724;SDS011;1370;52.596;13.112;2023-05-31T13:03:27;3.43;;;1.60;;
2724;SDS011;1370;52.596;13.112;2023-05-31T13:05:52;3.87;;;1.40;;
2724;SDS011;1370;52.596;13.112;2023-05-31T13:08:18;2.30;;;1.20;;
2724;SDS011;1370;52.596;13.112;2023-05-31T13:10:44;1.80;;;1.00;;
2724;SDS011;1370;52.596;13.112;2023-05-31T13:13:09;4.03;;;1.30;;
2724;SDS011;1370;52.596;13.112;2023-05-31T13:15:34;1.60;;;1.00;;
2724;SDS011;1370;52.596;13.112;2023-05-31T13:17:59;1.93;;;1.20;;
2724;SDS011;1370;52.596;13.112;2023-05-31T13:20:25;3.10;;;1.00;;
2724;SDS011;1370;52.596;13.112;2023-05-31T13:22:50;2.07;;;0.97;;
2724;SDS011;1370;52.596;13.112;2023-05-31T13:25:15;5.23;;;1.17;;
2724;SDS011;1370;52.596;13.112;2023-05-31T13:27:41;2.80;;;1.30;;
2724;SDS011;1370;52.596;13.112;2023-05-31T13:30:07;2.43;;;1.00;;
2724;SDS011;1370;52.596;13.112;2023-05-31T13:32:33;1.87;;;1.00;;
2724;SDS011;1370;52.596;13.112;2023-05-31T13:34:58;2.13;;;0.93;;
2724;SDS011;1370;52.596;13.112;2023-05-31T13:37:24;3.97;;;1.17;;
2724;SDS011;1370;52.596;13.112;2023-05-31T13:39:49;2.10;;;1.50;;
2724;SDS011;1370;52.596;13.112;2023-05-31T13:42:14;2.27;;;1.07;;
2724;SDS011;1370;52.596;13.112;2023-05-31T13:44:40;1.70;;;0.93;;
2724;SDS011;1370;52.596;13.112;2023-05-31T13:47:05;5.13;;;1.00;;
2724;SDS011;1370;52.596;13.112;2023-05-31T13:49:30;2.00;;;1.30;;
2724;SDS011;1370;52.596;13.112;2023-05-31T13:51:56;2.07;;;1.73;;
2724;SDS011;1370;52.596;13.112;2023-05-31T13:54:21;2.13;;;1.10;;
2724;SDS011;1370;52.596;13.112;2023-05-31T13:56:47;2.57;;;1.37;;
2724;SDS011;1370;52.596;13.112;2023-05-31T13:59:12;1.63;;;0.90;;
2724;SDS011;1370;52.596;13.112;2023-05-31T14:01:37;1.80;;;1.10;;
2724;SDS011;1370;52.596;13.112;2023-05-31T14:04:03;2.50;;;0.90;;
2724;SDS011;1370;52.596;13.112;2023-05-31T14:06:28;1.87;;;1.40;;
2724;SDS011;1370;52.596;13.112;2023-05-31T14:08:53;2.37;;;1.40;;
2724;SDS011;1370;52.596;13.112;2023-05-31T14:11:20;3.20;;;1.10;;
2724;SDS011;1370;52.596;13.112;2023-05-31T14:13:47;2.40;;;1.37;;
2724;SDS011;1370;52.596;13.112;2023-05-31T14:16:13;2.30;;;1.63;;
2724;SDS011;1370;52.596;13.112;2023-05-31T14:18:39;1.83;;;1.27;;
2724;SDS011;1370;52.596;13.112;2023-05-31T14:21:04;3.90;;;1.50;;
2724;SDS011;1370;52.596;13.112;2023-05-31T14:23:29;2.10;;;1.30;;
2724;SDS011;1370;52.596;13.112;2023-05-31T14:25:55;2.60;;;1.13;;
2724;SDS011;1370;52.596;13.112;2023-05-31T14:28:20;1.90;;;1.40;;
2724;SDS011;1370;52.596;13.112;2023-05-31T14:30:46;2.37;;;1.20;;
2724;SDS011;1370;52.596;13.112;2023-05-31T14:33:11;2.80;;;1.50;;
2724;SDS011;1370;52.596;13.112;2023-05-31T14:35:36;3.73;;;1.70;;
2724;SDS011;1370;52.596;13.112;2023-05-31T14:38:02;2.20;;;1.60;;
2724;SDS011;1370;52.596;13.112;2023-05-31T14:40:27;1.83;;;1.30;;
2724;SDS011;1370;52.596;13.112;2023-05-31T14:42:52;3.70;;;1.60;;
2724;SDS011;1370;52.596;13.112;2023-05-31T14:45:18;2.37;;;1.57;;
2724;SDS011;1370;52.596;13.112;2023-05-31T14:47:44;2.00;;;1.27;;
2724;SDS011;1370;52.596;13.112;2023-05-31T14:50:10;2.37;;;1.10;;
2724;SDS011;1370;52.596;13.112;2023-05-31T14:52:35;1.90;;;1.40;;
2724;SDS011;1370;52.596;13.112;2023-05-31T14:55:00;1.90;;;1.50;;
2724;SDS011;1370;52.596;13.112;2023-05-31T14:57:26;2.80;;;2.00;;
2724;SDS011;1370;52.596;13.112;2023-05-31T14:59:51;2.10;;;1.00;;
2724;SDS011;1370;52.596;13.112;2023-05-31T15:02:16;2.63;;;1.23;;
2724;SDS011;1370;52.596;13.112;2023-05-31T15:04:44;1.90;;;1.23;;
2724;SDS011;1370;52.596;13.112;2023-05-31T15:07:09;2.40;;;1.70;;
2724;SDS011;1370;52.596;13.112;2023-05-31T15:09:36;3.53;;;1.17;;
2724;SDS011;1370;52.596;13.112;2023-05-31T15:12:01;1.90;;;1.23;;
2724;SDS011;1370;52.596;13.112;2023-05-31T15:14:27;2.57;;;1.57;;
2724;SDS011;1370;52.596;13.112;2023-05-31T15:16:52;2.13;;;1.27;;
2724;SDS011;1370;52.596;13.112;2023-05-31T15:19:18;2.17;;;1.20;;
2724;SDS011;1370;52.596;13.112;2023-05-31T15:21:43;2.87;;;1.10;;